Time;durP1;ratioP1;P1;durP2;ratioP2;P2;SDS_P1;SDS_P2;PMS_P1;PMS_P2;Temp;Humidity;BMP_temperature;BMP_pressure;BME280_temperature;BME280_humidity;BME280_pressure;Samples;Min_cycle;Max_cycle;Signal;HPM_P1;HPM_P2
2022/04/22 00:00:36;;;;;;;;;;;16.50;99.90;;;;;;4880169;29;19912;-76
2022/04/22 00:03:04;;;;;;;;;;;16.50;99.90;;;;;;4880158;29;20295;-76
2022/04/22 00:05:30;;;;;;;;;;;16.50;99.90;;;;;;4879928;29;20336;-76
2022/04/22 00:07:57;;;;;;;;;;;16.60;99.90;;;;;;4879936;29;19920;-76
2022/04/22 00:10:24;;;;;;;;;;;16.60;99.90;;;;;;4880119;29;19912;-75
2022/04/22 00:12:50;;;;;;;;;;;16.60;99.90;;;;;;4880121;29;19916;-75
2022/04/22 00:15:17;;;;;;;;;;;16.60;99.90;;;;;;4880221;29;19912;-76
2022/04/22 00:17:44;;;;;;;;;;;16.50;99.90;;;;;;4879619;29;19912;-75
2022/04/22 00:20:11;;;;;;;;;;;16.50;99.90;;;;;;4879836;29;19931;-75
2022/04/22 00:22:39;;;;;;;;;;;16.50;99.90;;;;;;4880123;29;19911;-74
2022/04/22 00:25:07;;;;;;;;;;;16.60;99.90;;;;;;4879790;29;19941;-75
2022/04/22 00:27:33;;;;;;;;;;;16.70;99.90;;;;;;4879593;29;19945;-75
2022/04/22 00:30:00;;;;;;;;;;;16.80;99.90;;;;;;4879897;29;19912;-75
2022/04/22 00:32:26;;;;;;;;;;;16.90;99.90;;;;;;4875230;29;19916;-75
2022/04/22 00:34:53;;;;;;;;;;;17.00;99.90;;;;;;4868705;29;19912;-75
2022/04/22 00:37:20;;;;;;;;;;;17.10;99.90;;;;;;4860543;29;19912;-75
2022/04/22 00:39:46;;;;;;;;;;;17.20;99.90;;;;;;4860332;29;19919;-76
2022/04/22 00:42:13;;;;;;;;;;;17.30;99.90;;;;;;4861786;29;19912;-75
2022/04/22 00:44:40;;;;;;;;;;;17.40;99.90;;;;;;4879537;29;19960;-75
2022/04/22 00:47:06;;;;;;;;;;;17.50;99.90;;;;;;4879500;29;19923;-75
2022/04/22 00:49:33;;;;;;;;;;;17.60;99.90;;;;;;4879387;29;19958;-75
2022/04/22 00:52:01;;;;;;;;;;;17.60;99.90;;;;;;4879404;29;19912;-75
2022/04/22 00:54:27;;;;;;;;;;;17.60;99.90;;;;;;4879528;29;19912;-74
2022/04/22 00:56:54;;;;;;;;;;;17.60;99.90;;;;;;4879591;29;20265;-74
2022/04/22 00:59:21;;;;;;;;;;;17.50;99.90;;;;;;4879534;29;20427;-75
2022/04/22 01:01:47;;;;;;;;;;;17.50;99.90;;;;;;4879326;29;19912;-75
2022/04/22 01:09:51;;;;;;;;;;;17.40;99.90;;;;;;4879546;29;20443;-75
2022/04/22 01:12:19;;;;;;;;;;;17.50;99.90;;;;;;4879475;29;19955;-75
2022/04/22 01:14:46;;;;;;;;;;;17.50;99.90;;;;;;4879490;29;19919;-75
2022/04/22 01:17:13;;;;;;;;;;;17.60;99.90;;;;;;4879471;29;19919;-75
2022/04/22 01:19:41;;;;;;;;;;;17.80;99.90;;;;;;4879281;29;19915;-75
2022/04/22 01:22:08;;;;;;;;;;;17.80;99.90;;;;;;4879121;29;19959;-75
2022/04/22 01:24:36;;;;;;;;;;;17.80;99.90;;;;;;4878918;29;19912;-76
2022/04/22 01:27:04;;;;;;;;;;;17.70;99.90;;;;;;4879024;29;19951;-75
2022/04/22 01:29:31;;;;;;;;;;;17.60;99.90;;;;;;4879053;29;19919;-75
2022/04/22 01:31:59;;;;;;;;;;;17.50;99.90;;;;;;4879392;29;19912;-76
2022/04/22 01:34:26;;;;;;;;;;;17.50;99.90;;;;;;4879289;29;19960;-76
2022/04/22 01:36:52;;;;;;;;;;;17.50;99.90;;;;;;4879152;29;19911;-76
2022/04/22 01:39:19;;;;;;;;;;;17.50;99.90;;;;;;4878831;29;20279;-76
2022/04/22 01:41:46;;;;;;;;;;;17.50;99.90;;;;;;4878845;29;19916;-75
2022/04/22 01:44:12;;;;;;;;;;;17.50;99.90;;;;;;4878950;29;19994;-75
2022/04/22 01:46:40;;;;;;;;;;;17.40;99.90;;;;;;4879255;29;19912;-76
2022/04/22 01:49:07;;;;;;;;;;;17.30;99.90;;;;;;4878959;29;19926;-75
2022/04/22 01:51:33;;;;;;;;;;;17.20;99.90;;;;;;4878899;29;20333;-76
2022/04/22 01:54:00;;;;;;;;;;;17.10;99.90;;;;;;4880292;29;20332;-75
2022/04/22 01:56:27;;;;;;;;;;;17.00;99.90;;;;;;4882478;29;19919;-76
2022/04/22 01:58:54;;;;;;;;;;;16.90;99.90;;;;;;4882452;29;20003;-76
2022/04/22 02:01:20;;;;;;;;;;;17.00;99.90;;;;;;4882487;29;19919;-77
2022/04/22 02:03:47;;;;;;;;;;;17.00;99.90;;;;;;4881972;29;19928;-76
2022/04/22 02:06:13;;;;;;;;;;;16.90;99.90;;;;;;4882482;29;19911;-76
2022/04/22 02:08:40;;;;;;;;;;;16.90;99.90;;;;;;4882310;29;20382;-76
2022/04/22 02:11:07;;;;;;;;;;;16.80;99.90;;;;;;4882157;29;19912;-78
2022/04/22 02:13:36;;;;;;;;;;;16.80;99.90;;;;;;4882057;29;19931;-77
2022/04/22 02:16:07;;;;;;;;;;;16.70;99.90;;;;;;4882239;29;20323;-77
2022/04/22 02:18:36;;;;;;;;;;;16.60;99.90;;;;;;4881981;29;19912;-79
2022/04/22 02:21:06;;;;;;;;;;;16.70;99.90;;;;;;4881935;29;19919;-78
2022/04/22 02:23:33;;;;;;;;;;;16.70;99.90;;;;;;4881818;29;19967;-79
2022/04/22 02:26:00;;;;;;;;;;;16.70;99.90;;;;;;4881940;29;19919;-78
2022/04/22 02:28:33;;;;;;;;;;;16.70;99.90;;;;;;4881881;29;19968;-76
2022/04/22 02:31:01;;;;;;;;;;;16.70;99.90;;;;;;4881910;29;19919;-75
2022/04/22 02:33:28;;;;;;;;;;;16.60;99.90;;;;;;4881757;29;19911;-76
2022/04/22 02:35:54;;;;;;;;;;;16.50;99.90;;;;;;4881535;29;19940;-75
2022/04/22 02:38:21;;;;;;;;;;;16.50;99.90;;;;;;4881744;29;19935;-76
2022/04/22 02:46:17;;;;;;;;;;;16.60;99.90;;;;;;4881725;29;20036;-76
2022/04/22 02:48:43;;;;;;;;;;;16.70;99.90;;;;;;4874841;29;19924;-76
2022/04/22 02:51:10;;;;;;;;;;;16.70;99.90;;;;;;4866372;29;19912;-75
2022/04/22 02:53:36;;;;;;;;;;;16.60;99.90;;;;;;4862063;29;19999;-75
2022/04/22 02:56:05;;;;;;;;;;;16.60;99.90;;;;;;4862274;29;19923;-77
2022/04/22 02:58:33;;;;;;;;;;;16.60;99.90;;;;;;4861870;29;19916;-76
2022/04/22 03:00:59;;;;;;;;;;;16.60;99.90;;;;;;4880767;29;19955;-75
2022/04/22 03:03:26;;;;;;;;;;;16.60;99.90;;;;;;4881141;29;19924;-76
2022/04/22 03:05:53;;;;;;;;;;;16.60;99.90;;;;;;4880819;29;19912;-78
2022/04/22 03:08:20;;;;;;;;;;;16.40;99.90;;;;;;4881177;29;20003;-75
2022/04/22 03:10:48;;;;;;;;;;;16.30;99.90;;;;;;4881464;29;19959;-77
2022/04/22 03:13:15;;;;;;;;;;;16.30;99.90;;;;;;4881021;29;19911;-76
2022/04/22 03:15:42;;;;;;;;;;;16.10;99.90;;;;;;4880997;29;19915;-77
2022/04/22 03:18:10;;;;;;;;;;;16.10;99.90;;;;;;4881161;29;19911;-77
2022/04/22 03:20:37;;;;;;;;;;;16.00;99.90;;;;;;4881162;29;20006;-76
2022/04/22 03:23:04;;;;;;;;;;;16.10;99.90;;;;;;4881131;29;20283;-80
2022/04/22 03:25:30;;;;;;;;;;;16.20;99.90;;;;;;4880724;29;20002;-76
2022/04/22 03:27:57;;;;;;;;;;;16.10;99.90;;;;;;4880857;29;19916;-76
2022/04/22 03:30:24;;;;;;;;;;;16.10;99.90;;;;;;4880922;29;20295;-78
2022/04/22 03:32:50;;;;;;;;;;;16.20;99.90;;;;;;4880759;29;19922;-76
2022/04/22 03:35:17;;;;;;;;;;;16.40;99.90;;;;;;4880869;29;19912;-82
2022/04/22 03:37:44;;;;;;;;;;;16.40;99.90;;;;;;4880409;29;20355;-82
2022/04/22 03:40:10;;;;;;;;;;;16.50;99.90;;;;;;4880746;29;20395;-81
2022/04/22 03:42:37;;;;;;;;;;;16.60;99.90;;;;;;4864010;29;20268;-78
2022/04/22 03:45:04;;;;;;;;;;;16.60;99.90;;;;;;4880775;29;19918;-80
2022/04/22 03:47:31;;;;;;;;;;;16.60;99.90;;;;;;4880437;29;19928;-77
2022/04/22 03:49:58;;;;;;;;;;;16.40;99.90;;;;;;4880581;29;19919;-78
2022/04/22 03:52:24;;;;;;;;;;;16.30;99.90;;;;;;4880234;29;19912;-78
2022/04/22 03:54:52;;;;;;;;;;;16.40;99.90;;;;;;4880295;29;20384;-77
2022/04/22 04:00:04;;;;;;;;;;;16.30;99.90;;;;;;4880654;29;19935;-75
2022/04/22 04:02:31;;;;;;;;;;;16.30;99.90;;;;;;4879960;29;19922;-76
2022/04/22 04:04:57;;;;;;;;;;;16.20;99.90;;;;;;4880343;29;19911;-77
2022/04/22 04:07:24;;;;;;;;;;;16.10;99.90;;;;;;4879975;29;19916;-76
2022/04/22 04:18:04;;;;;;;;;;;16.30;99.90;;;;;;4880206;29;19919;-79
2022/04/22 04:23:16;;;;;;;;;;;16.30;99.90;;;;;;4880184;29;19939;-77
2022/04/22 04:25:43;;;;;;;;;;;16.30;99.90;;;;;;4879728;29;19911;-77
2022/04/22 04:28:10;;;;;;;;;;;16.30;99.90;;;;;;4879924;29;20011;-79
2022/04/22 04:30:40;;;;;;;;;;;16.40;99.90;;;;;;4879722;29;19912;-80
2022/04/22 04:33:08;;;;;;;;;;;16.40;99.90;;;;;;4879568;29;19955;-80
2022/04/22 04:35:35;;;;;;;;;;;16.40;99.90;;;;;;4879483;29;19928;-79
2022/04/22 04:38:02;;;;;;;;;;;16.40;99.90;;;;;;4879429;29;20376;-80
2022/04/22 04:40:29;;;;;;;;;;;16.50;99.90;;;;;;4879682;29;19911;-78
2022/04/22 04:42:55;;;;;;;;;;;16.50;99.90;;;;;;4879656;29;19923;-79
2022/04/22 04:45:22;;;;;;;;;;;16.40;99.90;;;;;;4879676;29;19941;-80
2022/04/22 04:47:49;;;;;;;;;;;16.50;99.90;;;;;;4862753;29;19927;-79
2022/04/22 04:50:15;;;;;;;;;;;16.50;99.90;;;;;;4879637;29;19916;-79
2022/04/22 04:52:42;;;;;;;;;;;16.50;99.90;;;;;;4879431;29;19935;-78
2022/04/22 04:55:10;;;;;;;;;;;16.60;99.90;;;;;;4872976;29;19923;-78
2022/04/22 04:57:37;;;;;;;;;;;16.60;99.90;;;;;;4864232;29;19912;-79
2022/04/22 05:00:08;;;;;;;;;;;16.70;99.90;;;;;;4860116;29;19968;-79
2022/04/22 05:02:35;;;;;;;;;;;16.70;99.90;;;;;;4860055;29;20011;-79
2022/04/22 05:05:05;;;;;;;;;;;16.70;99.90;;;;;;4863946;29;19947;-79
2022/04/22 05:07:34;;;;;;;;;;;16.60;99.90;;;;;;4878724;29;20356;-77
2022/04/22 05:10:01;;;;;;;;;;;16.60;99.90;;;;;;4879364;29;19931;-80
2022/04/22 05:12:28;;;;;;;;;;;16.60;99.90;;;;;;4879541;29;19912;-77
2022/04/22 05:14:56;;;;;;;;;;;16.50;99.90;;;;;;4879293;29;20389;-78
2022/04/22 05:17:22;;;;;;;;;;;16.50;99.90;;;;;;4879187;29;20006;-78
2022/04/22 05:19:49;;;;;;;;;;;16.50;99.90;;;;;;4879068;29;20014;-79
2022/04/22 05:22:15;;;;;;;;;;;16.50;99.90;;;;;;4879372;29;19916;-79
2022/04/22 05:24:42;;;;;;;;;;;16.40;99.90;;;;;;4879365;29;19960;-79
2022/04/22 05:27:09;;;;;;;;;;;16.40;99.90;;;;;;4879004;29;19912;-79
2022/04/22 05:32:38;;;;;;;;;;;16.20;99.90;;;;;;4883049;29;19918;-78
2022/04/22 05:35:09;;;;;;;;;;;16.30;99.90;;;;;;4882925;29;19923;-78
2022/04/22 05:37:44;;;;;;;;;;;16.20;99.90;;;;;;4882533;29;19956;-79
2022/04/22 05:40:12;;;;;;;;;;;16.10;99.90;;;;;;4882904;29;19916;-78
2022/04/22 05:42:38;;;;;;;;;;;16.10;99.90;;;;;;4882763;29;19912;-79
2022/04/22 05:45:09;;;;;;;;;;;16.00;99.90;;;;;;4882573;29;20006;-78
2022/04/22 05:47:36;;;;;;;;;;;15.90;99.90;;;;;;4882447;29;19915;-79
2022/04/22 05:50:04;;;;;;;;;;;15.90;99.90;;;;;;4882683;29;19918;-79
2022/04/22 05:52:34;;;;;;;;;;;15.90;99.90;;;;;;4882492;29;19927;-75
2022/04/22 05:55:02;;;;;;;;;;;16.00;99.90;;;;;;4882389;29;19916;-80
2022/04/22 05:57:32;;;;;;;;;;;15.90;99.90;;;;;;4882349;29;19912;-79
2022/04/22 05:59:59;;;;;;;;;;;15.90;99.90;;;;;;4882322;29;19916;-80
2022/04/22 06:02:27;;;;;;;;;;;16.00;99.90;;;;;;4882136;29;19912;-77
2022/04/22 06:04:53;;;;;;;;;;;15.90;99.90;;;;;;4882355;29;20439;-79
2022/04/22 06:07:20;;;;;;;;;;;15.90;99.90;;;;;;4882212;29;19972;-77
2022/04/22 06:12:31;;;;;;;;;;;15.80;99.90;;;;;;4882716;29;19939;-78
2022/04/22 06:15:02;;;;;;;;;;;15.90;99.90;;;;;;4882240;29;20446;-79
2022/04/22 06:17:29;;;;;;;;;;;15.90;99.90;;;;;;4882010;29;19912;-80
2022/04/22 06:19:56;;;;;;;;;;;16.00;99.90;;;;;;4882037;29;19912;-80
2022/04/22 06:22:23;;;;;;;;;;;16.00;99.90;;;;;;4881918;29;19918;-79
2022/04/22 06:24:50;;;;;;;;;;;16.00;99.90;;;;;;4882017;29;20008;-79
2022/04/22 06:27:23;;;;;;;;;;;16.00;99.90;;;;;;4881960;29;19999;-78
2022/04/22 06:29:51;;;;;;;;;;;16.00;99.90;;;;;;4881937;29;19919;-80
2022/04/22 06:32:18;;;;;;;;;;;16.00;99.90;;;;;;4881854;29;19912;-81
2022/04/22 06:34:44;;;;;;;;;;;16.10;99.90;;;;;;4881950;29;19999;-80
2022/04/22 06:37:11;;;;;;;;;;;16.10;99.90;;;;;;4881731;29;19923;-80
2022/04/22 06:47:53;;;;;;;;;;;16.30;99.90;;;;;;4881364;29;19971;-78
2022/04/22 06:50:20;;;;;;;;;;;16.30;99.90;;;;;;4881666;29;19918;-77
2022/04/22 06:52:47;;;;;;;;;;;16.30;99.90;;;;;;4878620;29;20410;-79
2022/04/22 06:55:20;;;;;;;;;;;16.30;99.90;;;;;;4879234;29;20022;-79
2022/04/22 06:57:51;;;;;;;;;;;16.30;99.90;;;;;;4879165;29;19911;-78
2022/04/22 07:00:19;;;;;;;;;;;16.30;99.90;;;;;;4862407;29;19943;-77
2022/04/22 07:02:46;;;;;;;;;;;16.40;99.90;;;;;;4879517;29;20049;-76
2022/04/22 07:05:13;;;;;;;;;;;16.40;99.90;;;;;;4879051;29;20375;-76
2022/04/22 07:07:40;;;;;;;;;;;16.40;99.90;;;;;;4879120;29;19959;-78
2022/04/22 07:10:07;;;;;;;;;;;16.40;99.90;;;;;;4879393;29;19951;-76
2022/04/22 07:12:34;;;;;;;;;;;16.30;99.90;;;;;;4879593;29;19965;-76
2022/04/22 07:15:03;;;;;;;;;;;16.30;99.90;;;;;;4879445;29;19920;-75
2022/04/22 07:17:34;;;;;;;;;;;16.30;99.90;;;;;;4878674;29;20026;-78
2022/04/22 07:20:06;;;;;;;;;;;16.40;99.90;;;;;;4879194;29;20530;-76
2022/04/22 07:22:34;;;;;;;;;;;16.40;99.90;;;;;;4879131;29;19940;-76
2022/04/22 07:25:01;;;;;;;;;;;16.30;99.90;;;;;;4879304;29;19958;-74
2022/04/22 07:27:30;;;;;;;;;;;16.30;99.90;;;;;;4878933;29;19979;-77
2022/04/22 07:29:58;;;;;;;;;;;16.30;99.90;;;;;;4878737;29;19964;-76
2022/04/22 07:32:26;;;;;;;;;;;16.40;99.90;;;;;;4879060;29;20368;-75
2022/04/22 07:34:54;;;;;;;;;;;16.40;99.90;;;;;;4879056;29;19911;-75
2022/04/22 07:37:21;;;;;;;;;;;16.40;99.90;;;;;;4878781;29;19915;-76
2022/04/22 07:39:48;;;;;;;;;;;16.40;99.90;;;;;;4878096;29;19947;-76
2022/04/22 07:42:20;;;;;;;;;;;16.40;99.90;;;;;;4878623;29;19990;-75
2022/04/22 07:47:36;;;;;;;;;;;16.50;99.90;;;;;;4878517;29;19963;-76
2022/04/22 07:50:06;;;;;;;;;;;16.60;99.90;;;;;;4878586;29;19916;-77
2022/04/22 07:52:33;;;;;;;;;;;16.60;99.90;;;;;;4877469;29;19967;-77
2022/04/22 07:55:01;;;;;;;;;;;16.60;99.90;;;;;;4878301;29;20007;-76
2022/04/22 07:57:28;;;;;;;;;;;16.60;99.90;;;;;;4878159;29;19919;-76
2022/04/22 07:59:54;;;;;;;;;;;16.60;99.90;;;;;;4878188;29;19911;-76
2022/04/22 08:02:21;;;;;;;;;;;16.50;99.90;;;;;;4878262;29;19923;-75
2022/04/22 08:04:48;;;;;;;;;;;16.50;99.90;;;;;;4877978;29;19924;-76
2022/04/22 08:07:16;;;;;;;;;;;16.60;99.90;;;;;;4877810;29;19919;-75
2022/04/22 08:09:46;;;;;;;;;;;16.50;99.90;;;;;;4877624;29;19924;-75
2022/04/22 08:12:14;;;;;;;;;;;16.50;99.90;;;;;;4878077;29;20457;-75
2022/04/22 08:14:41;;;;;;;;;;;16.40;99.90;;;;;;4878150;29;20642;-74
2022/04/22 08:17:08;;;;;;;;;;;16.40;99.90;;;;;;4878038;29;19916;-76
2022/04/22 08:19:35;;;;;;;;;;;16.40;99.90;;;;;;4877759;29;20613;-76
2022/04/22 08:22:01;;;;;;;;;;;16.40;99.90;;;;;;4877850;29;19922;-78
2022/04/22 08:24:29;;;;;;;;;;;16.30;99.90;;;;;;4860870;29;19912;-75
2022/04/22 08:26:56;;;;;;;;;;;16.20;99.90;;;;;;4877990;29;19912;-76
2022/04/22 08:29:23;;;;;;;;;;;16.20;99.90;;;;;;4877684;29;19927;-75
2022/04/22 08:31:52;;;;;;;;;;;16.10;99.90;;;;;;4877207;29;19963;-76
2022/04/22 08:34:19;;;;;;;;;;;16.10;99.90;;;;;;4860905;29;20378;-75
2022/04/22 08:36:47;;;;;;;;;;;16.00;99.90;;;;;;4877372;29;19951;-75
2022/04/22 08:39:14;;;;;;;;;;;16.10;99.90;;;;;;4877504;29;19923;-76
2022/04/22 08:41:42;;;;;;;;;;;16.10;99.90;;;;;;4877522;29;19920;-75
2022/04/22 08:44:12;;;;;;;;;;;16.10;99.90;;;;;;4860693;29;19915;-77
2022/04/22 08:52:09;;;;;;;;;;;15.90;99.90;;;;;;4859263;29;20391;-80
2022/04/22 08:54:36;;;;;;;;;;;15.80;99.90;;;;;;4859042;29;19916;-78
2022/04/22 08:57:03;;;;;;;;;;;15.80;99.90;;;;;;4858602;29;19916;-78
2022/04/22 08:59:30;;;;;;;;;;;15.80;99.90;;;;;;4858628;29;20010;-76
2022/04/22 09:01:57;;;;;;;;;;;15.80;99.90;;;;;;4859177;29;20287;-75
2022/04/22 09:04:25;;;;;;;;;;;15.70;99.90;;;;;;4862586;29;19928;-77
2022/04/22 09:06:52;;;;;;;;;;;15.70;99.90;;;;;;4864627;29;19916;-79
2022/04/22 09:09:19;;;;;;;;;;;15.70;99.90;;;;;;4864808;29;19920;-79
2022/04/22 09:11:46;;;;;;;;;;;15.70;99.90;;;;;;4864730;29;19916;-81
2022/04/22 09:14:19;;;;;;;;;;;15.70;99.90;;;;;;4864753;29;19912;-79
2022/04/22 09:16:46;;;;;;;;;;;15.60;99.90;;;;;;4864631;29;19988;-80
2022/04/22 09:19:13;;;;;;;;;;;15.60;99.90;;;;;;4864672;29;19912;-77
2022/04/22 09:21:39;;;;;;;;;;;15.60;99.90;;;;;;4864257;29;19918;-81
2022/04/22 09:24:16;;;;;;;;;;;15.60;99.90;;;;;;4864566;29;19912;-80
2022/04/22 09:26:43;;;;;;;;;;;15.60;99.90;;;;;;4865026;29;19984;-80
2022/04/22 09:29:12;;;;;;;;;;;15.70;99.90;;;;;;4864240;29;19920;-76
2022/04/22 09:31:46;;;;;;;;;;;15.80;99.90;;;;;;4864288;29;19912;-81
2022/04/22 09:34:13;;;;;;;;;;;15.70;99.90;;;;;;4864650;29;19913;-79
2022/04/22 09:44:57;;;;;;;;;;;15.70;99.90;;;;;;4864332;29;19951;-80
2022/04/22 09:47:30;;;;;;;;;;;15.60;99.90;;;;;;4863953;29;20364;-79
2022/04/22 09:49:57;;;;;;;;;;;15.60;99.90;;;;;;4864043;29;19920;-80
2022/04/22 09:52:27;;;;;;;;;;;15.60;99.90;;;;;;4863979;29;20388;-81
2022/04/22 09:55:04;;;;;;;;;;;15.60;99.90;;;;;;4863792;29;19912;-82
2022/04/22 09:57:52;;;;;;;;;;;15.70;99.90;;;;;;4863616;29;19920;-77
2022/04/22 10:00:19;;;;;;;;;;;15.80;99.90;;;;;;4863737;29;19968;-78
2022/04/22 10:02:49;;;;;;;;;;;15.70;99.90;;;;;;4863670;29;19920;-77
2022/04/22 10:05:20;;;;;;;;;;;15.70;99.90;;;;;;4863736;29;20372;-80
2022/04/22 10:07:57;;;;;;;;;;;15.70;99.90;;;;;;4863217;29;19916;-80
2022/04/22 10:10:31;;;;;;;;;;;15.70;99.90;;;;;;4861503;29;19956;-76
2022/04/22 10:13:00;;;;;;;;;;;15.70;99.90;;;;;;4861150;29;19916;-77
2022/04/22 10:15:28;;;;;;;;;;;15.70;99.90;;;;;;4860609;29;19943;-78
2022/04/22 10:17:55;;;;;;;;;;;15.80;99.90;;;;;;4861291;29;20380;-76
2022/04/22 10:20:22;;;;;;;;;;;15.80;99.90;;;;;;4861377;29;19924;-76
2022/04/22 10:22:52;;;;;;;;;;;15.80;99.90;;;;;;4861534;29;20333;-77
2022/04/22 10:25:19;;;;;;;;;;;15.90;99.90;;;;;;4861267;29;20259;-77
2022/04/22 10:27:46;;;;;;;;;;;15.90;99.90;;;;;;4860515;29;20281;-78
2022/04/22 10:30:14;;;;;;;;;;;15.90;99.90;;;;;;4861691;29;19924;-77
2022/04/22 10:32:41;;;;;;;;;;;15.90;99.90;;;;;;4861581;29;20011;-78
2022/04/22 10:35:09;;;;;;;;;;;15.80;99.90;;;;;;4860976;29;19912;-80
2022/04/22 10:37:41;;;;;;;;;;;15.80;99.90;;;;;;4861195;29;19912;-80
2022/04/22 10:40:21;;;;;;;;;;;15.80;99.90;;;;;;4861126;29;20407;-80
2022/04/22 10:42:48;;;;;;;;;;;15.90;99.90;;;;;;4860640;29;20035;-76
2022/04/22 10:47:59;;;;;;;;;;;15.80;99.90;;;;;;4861176;29;19931;-77
2022/04/22 10:50:28;;;;;;;;;;;15.70;99.90;;;;;;4860508;29;19913;-78
2022/04/22 10:53:02;;;;;;;;;;;15.70;99.90;;;;;;4860905;29;19991;-76
2022/04/22 10:55:30;;;;;;;;;;;15.70;99.90;;;;;;4861020;29;20352;-76
2022/04/22 10:58:15;;;;;;;;;;;15.60;99.90;;;;;;4860320;29;19913;-78
2022/04/22 11:00:42;;;;;;;;;;;15.60;99.90;;;;;;4860841;29;19931;-81
2022/04/22 11:03:13;;;;;;;;;;;15.70;99.90;;;;;;4860280;29;19995;-78
2022/04/22 11:05:45;;;;;;;;;;;15.80;99.90;;;;;;4860655;29;19972;-82
2022/04/22 11:08:31;;;;;;;;;;;15.70;99.90;;;;;;4860343;29;19920;-81
2022/04/22 11:11:00;;;;;;;;;;;15.70;99.90;;;;;;4860790;29;20375;-76
2022/04/22 11:13:29;;;;;;;;;;;15.70;99.90;;;;;;4860454;29;20268;-77
2022/04/22 11:15:59;;;;;;;;;;;15.80;99.90;;;;;;4860111;29;19923;-78
2022/04/22 11:18:26;;;;;;;;;;;15.80;99.90;;;;;;4860492;29;19948;-75
2022/04/22 11:20:59;;;;;;;;;;;15.80;99.90;;;;;;4860225;29;19917;-76
2022/04/22 11:23:34;;;;;;;;;;;15.70;99.90;;;;;;4860294;29;20374;-76
2022/04/22 11:26:01;;;;;;;;;;;15.70;99.90;;;;;;4859712;29;19912;-77
2022/04/22 11:28:28;;;;;;;;;;;15.70;99.90;;;;;;4860102;29;19920;-75
2022/04/22 11:30:56;;;;;;;;;;;15.70;99.90;;;;;;4860130;29;19966;-75
2022/04/22 11:33:23;;;;;;;;;;;15.70;99.90;;;;;;4859790;29;19916;-75
2022/04/22 11:35:53;;;;;;;;;;;15.70;99.90;;;;;;4855939;29;19916;-77
2022/04/22 11:38:20;;;;;;;;;;;15.80;99.90;;;;;;4857746;29;20436;-74
2022/04/22 11:40:49;;;;;;;;;;;15.70;99.90;;;;;;4859080;29;19973;-75
2022/04/22 11:43:20;;;;;;;;;;;15.70;99.90;;;;;;4860311;29;20402;-76
2022/04/22 11:45:50;;;;;;;;;;;15.80;99.90;;;;;;4858397;29;19919;-75
2022/04/22 11:48:24;;;;;;;;;;;15.80;99.90;;;;;;4859823;29;19931;-76
2022/04/22 11:50:53;;;;;;;;;;;15.80;99.90;;;;;;4859750;29;19916;-74
2022/04/22 11:53:26;;;;;;;;;;;15.70;99.90;;;;;;4859750;29;19913;-77
2022/04/22 11:55:53;;;;;;;;;;;15.80;99.90;;;;;;4858841;29;19916;-75
2022/04/22 11:58:20;;;;;;;;;;;15.80;99.90;;;;;;4859481;29;19913;-75
2022/04/22 12:06:18;;;;;;;;;;;15.80;99.90;;;;;;4859438;29;20027;-75
2022/04/22 12:08:51;;;;;;;;;;;15.80;99.90;;;;;;4859177;29;20451;-75
2022/04/22 12:11:18;;;;;;;;;;;15.90;99.90;;;;;;4859350;29;19916;-75
2022/04/22 12:13:47;;;;;;;;;;;15.80;99.90;;;;;;4859431;29;20295;-76
2022/04/22 12:16:33;;;;;;;;;;;15.80;99.90;;;;;;4859371;29;19913;-77
2022/04/22 12:19:00;;;;;;;;;;;15.70;99.90;;;;;;4859050;29;20425;-75
2022/04/22 12:21:31;;;;;;;;;;;15.60;99.90;;;;;;4859083;29;19912;-74
2022/04/22 12:24:04;;;;;;;;;;;15.60;99.90;;;;;;4859470;29;20268;-74
2022/04/22 12:26:37;;;;;;;;;;;15.70;99.90;;;;;;4858884;29;20368;-75
2022/04/22 12:29:14;;;;;;;;;;;15.70;99.90;;;;;;4859162;29;19931;-75
2022/04/22 12:31:42;;;;;;;;;;;15.70;99.90;;;;;;4859404;29;20002;-74
2022/04/22 12:34:10;;;;;;;;;;;15.70;99.90;;;;;;4858667;29;19945;-76
2022/04/22 12:36:38;;;;;;;;;;;15.70;99.90;;;;;;4859098;29;20351;-75
2022/04/22 12:39:09;;;;;;;;;;;15.70;99.90;;;;;;4858921;29;19923;-76
2022/04/22 12:41:45;;;;;;;;;;;15.70;99.90;;;;;;4858506;29;19912;-75
2022/04/22 12:44:13;;;;;;;;;;;15.60;99.90;;;;;;4858950;29;19912;-76
2022/04/22 12:52:14;;;;;;;;;;;15.70;99.90;;;;;;4859134;29;20685;-75
2022/04/22 12:54:42;;;;;;;;;;;15.60;99.90;;;;;;4859023;29;19972;-77
2022/04/22 12:57:19;;;;;;;;;;;15.60;99.90;;;;;;4858482;29;19916;-78
2022/04/22 12:59:47;;;;;;;;;;;15.60;99.90;;;;;;4858475;29;19947;-78
2022/04/22 13:02:18;;;;;;;;;;;15.70;99.90;;;;;;4858931;29;19916;-76
2022/04/22 13:04:51;;;;;;;;;;;15.70;99.90;;;;;;4858810;29;20008;-76
2022/04/22 13:07:18;;;;;;;;;;;15.70;99.90;;;;;;4858908;29;19912;-77
2022/04/22 13:09:45;;;;;;;;;;;15.70;99.90;;;;;;4857321;29;19923;-75
2022/04/22 13:12:12;;;;;;;;;;;15.60;99.90;;;;;;4858171;29;20015;-76
2022/04/22 13:14:39;;;;;;;;;;;15.60;99.90;;;;;;4859135;29;19916;-76
2022/04/22 13:17:06;;;;;;;;;;;15.70;99.90;;;;;;4858876;29;20420;-76
2022/04/22 13:19:33;;;;;;;;;;;15.70;99.90;;;;;;4858223;29;19928;-79
2022/04/22 13:22:00;;;;;;;;;;;15.60;99.90;;;;;;4858718;29;19968;-76
2022/04/22 13:24:26;;;;;;;;;;;15.60;99.90;;;;;;4858733;29;19916;-75
2022/04/22 13:26:53;;;;;;;;;;;15.50;99.90;;;;;;4857843;29;19916;-74
2022/04/22 13:29:20;;;;;;;;;;;15.50;99.90;;;;;;4858745;29;19924;-77
2022/04/22 13:31:47;;;;;;;;;;;15.50;99.90;;;;;;4858471;29;20351;-79
2022/04/22 13:34:13;;;;;;;;;;;15.50;99.90;;;;;;4859052;29;19972;-78
2022/04/22 13:36:40;;;;;;;;;;;15.50;99.90;;;;;;4858871;29;19913;-77
2022/04/22 13:39:06;;;;;;;;;;;15.50;99.90;;;;;;4858161;29;19991;-75
2022/04/22 13:41:34;;;;;;;;;;;15.50;99.90;;;;;;4857837;29;19961;-75
2022/04/22 13:44:00;;;;;;;;;;;15.50;99.90;;;;;;4858486;29;20324;-75
2022/04/22 13:52:21;;;;;;;;;;;15.40;99.90;;;;;;4858839;29;19930;-78
2022/04/22 13:54:47;;;;;;;;;;;15.40;99.90;;;;;;4861723;29;20048;-76
2022/04/22 13:57:13;;;;;;;;;;;15.40;99.90;;;;;;4861898;29;19968;-80
2022/04/22 13:59:40;;;;;;;;;;;15.40;99.90;;;;;;4861714;29;19942;-79
2022/04/22 14:02:07;;;;;;;;;;;15.40;99.90;;;;;;4861863;29;19912;-78
2022/04/22 14:04:36;;;;;;;;;;;15.40;99.90;;;;;;4861276;29;19927;-78
2022/04/22 14:07:03;;;;;;;;;;;15.40;99.90;;;;;;4861629;29;19916;-80
2022/04/22 14:09:30;;;;;;;;;;;15.40;99.90;;;;;;4860823;29;19963;-77
2022/04/22 14:11:56;;;;;;;;;;;15.30;99.90;;;;;;4861551;29;20393;-79
2022/04/22 14:14:25;;;;;;;;;;;15.30;99.90;;;;;;4861740;29;20325;-79
2022/04/22 14:16:52;;;;;;;;;;;15.40;99.90;;;;;;4861689;29;19918;-80
2022/04/22 14:19:19;;;;;;;;;;;15.30;99.90;;;;;;4861121;29;19916;-77
2022/04/22 14:21:46;;;;;;;;;;;15.30;99.90;;;;;;4861372;29;19919;-77
2022/04/22 14:24:13;;;;;;;;;;;15.30;99.90;;;;;;4861030;29;19916;-77
2022/04/22 14:26:39;;;;;;;;;;;15.30;99.90;;;;;;4861468;29;19920;-76
2022/04/22 14:29:06;;;;;;;;;;;15.30;99.90;;;;;;4861289;29;20437;-76
2022/04/22 14:31:33;;;;;;;;;;;15.40;99.90;;;;;;4860811;29;19912;-75
2022/04/22 14:33:59;;;;;;;;;;;15.30;99.90;;;;;;4861659;29;19912;-79
2022/04/22 14:36:26;;;;;;;;;;;15.40;99.90;;;;;;4861133;29;19912;-77
2022/04/22 14:38:53;;;;;;;;;;;15.40;99.90;;;;;;4860851;29;19916;-78
2022/04/22 14:41:19;;;;;;;;;;;15.40;99.90;;;;;;4861207;29;19999;-75
2022/04/22 14:43:46;;;;;;;;;;;15.40;99.90;;;;;;4860563;29;19965;-78
2022/04/22 14:46:16;;;;;;;;;;;15.40;99.90;;;;;;4861180;29;19979;-76
2022/04/22 14:48:44;;;;;;;;;;;15.30;99.90;;;;;;4860958;29;19928;-75
2022/04/22 14:51:11;;;;;;;;;;;15.30;99.90;;;;;;4861088;29;20003;-76
2022/04/22 14:53:38;;;;;;;;;;;15.30;99.90;;;;;;4860731;29;20329;-75
2022/04/22 14:56:04;;;;;;;;;;;15.30;99.90;;;;;;4860841;29;20543;-75
2022/04/22 14:58:31;;;;;;;;;;;15.20;99.90;;;;;;4860588;29;19971;-77
2022/04/22 15:00:58;;;;;;;;;;;15.20;99.90;;;;;;4860688;29;19923;-75
2022/04/22 15:03:25;;;;;;;;;;;15.20;99.90;;;;;;4860562;29;19924;-78
2022/04/22 15:05:51;;;;;;;;;;;15.20;99.90;;;;;;4860592;29;19916;-75
2022/04/22 15:08:18;;;;;;;;;;;15.20;99.90;;;;;;4860794;29;19975;-77
2022/04/22 15:10:44;;;;;;;;;;;15.20;99.90;;;;;;4860393;29;19918;-75
2022/04/22 15:13:11;;;;;;;;;;;15.30;99.90;;;;;;4860775;29;20436;-76
2022/04/22 15:15:41;;;;;;;;;;;15.20;99.90;;;;;;4860585;29;20026;-77
2022/04/22 15:26:22;;;;;;;;;;;15.30;99.90;;;;;;4860573;29;19923;-78
2022/04/22 15:28:48;;;;;;;;;;;15.30;99.90;;;;;;4860325;29;19927;-75
2022/04/22 15:31:15;;;;;;;;;;;15.30;99.90;;;;;;4860466;29;19919;-78
2022/04/22 15:33:43;;;;;;;;;;;15.30;99.90;;;;;;4858914;29;20015;-79
2022/04/22 15:36:11;;;;;;;;;;;15.30;99.90;;;;;;4860116;29;20482;-75
2022/04/22 15:38:39;;;;;;;;;;;15.40;99.90;;;;;;4860313;29;20276;-76
2022/04/22 15:41:07;;;;;;;;;;;15.30;99.90;;;;;;4860353;29;19916;-76
2022/04/22 15:43:36;;;;;;;;;;;15.30;99.90;;;;;;4860495;29;19912;-76